Have a Safe July 4th! 

Flight Track Log - Related Links

Times and Time Zones

All times are in EDT time to prevent confusion due to time zone crossing. See the LKF83 flight status page for this flight to view local times or setup timezone preferences in your user account.

Time Position Orientation Groundspeed Altitude Reporting Facility
EDT Latitude Longitude Course Direction KTS MPH feet Rate Location/Type
Sat 04:07:13 PM 42.5833 -87.9500 324° Northwest 147 169 1,300  Level KMKE
Sat 04:08:13 PM 42.6333 -88.0000 324° Northwest 254 292 3,800 3,298 Climbing KMKE
Sat 04:09:44 PM 42.7206 -88.0656 331° Northwest 253 291 9,600 3,725 Climbing Chicago Center
Sat 04:10:46 PM 42.7608 -88.1442 305° West 253 291 13,300 2,195 Climbing Chicago Center
Sat 04:11:47 PM 42.8019 -88.2342 302° West 277 319 14,100 1,415 Climbing Chicago Center
Sat 04:12:49 PM 42.8469 -88.3372 301° West 308 354 16,200 2,903 Climbing Chicago Center
Sat 04:13:51 PM 42.8969 -88.4486 302° West 285 328 20,100 2,832 Climbing Chicago Center
Sat 04:14:54 PM 42.9353 -88.5389 300° West 274 315 22,100 1,935 Climbing Chicago Center
Sat 04:15:55 PM 42.9447 -88.6517 277° West 296 341 24,100 1,967 Climbing Chicago Center
Sat 04:16:56 PM 42.9483 -88.7669 272° West 301 346 26,100 1,805 Climbing Chicago Center
Sat 04:17:58 PM 42.9517 -88.8889 272° West 312 359 27,800 1,548 Climbing Chicago Center
Sat 04:19:00 PM 42.9558 -89.0186 273° West 331 381 29,300 1,463 Climbing Chicago Center
Sat 04:20:01 PM 42.9594 -89.1528 272° West 348 400 30,800 1,463 Climbing Chicago Center
Sat 04:21:03 PM 42.9628 -89.2867 272° West 355 409 32,300 1,597 Climbing Chicago Center
Sat 04:22:05 PM 42.9672 -89.4439 272° West 350 403 34,100 1,610 Climbing Chicago Center
Sat 04:23:06 PM 42.9706 -89.5733 272° West 346 398 35,600 1,463 Climbing Chicago Center
Sat 04:24:08 PM 42.9731 -89.6981 272° West 335 386 37,100 1,452 Climbing Chicago Center
Sat 04:25:10 PM 42.9697 -89.8203 268° West 325 374 38,600 1,161 Climbing Chicago Center
Sat 04:26:12 PM 42.9431 -89.9247 251° West 318 366 39,500 677 Climbing Chicago Center
Sat 04:27:14 PM 42.9186 -90.0369 253° West 314 361 40,000 244 Climbing Chicago Center
Sat 04:28:15 PM 42.8864 -90.1808 253° West 333 383 40,000  Level Chicago Center
Sat 04:29:17 PM 42.8564 -90.3064 252° West 346 398 40,000  Level Chicago Center
Sat 04:30:18 PM 42.8281 -90.4383 254° West 362 417 40,000  Level Chicago Center
Sat 04:31:20 PM 42.7975 -90.5719 253° West 370 426 40,000  Level Chicago Center
Sat 04:32:22 PM 42.7650 -90.7061 252° West 372 428 40,000  Level Chicago Center
Sat 04:33:23 PM 42.7283 -90.8664 253° West 370 426 40,000  Level Chicago Center
Sat 04:34:25 PM 42.6958 -91.0003 252° West 373 429 40,000  Level Chicago Center
Sat 04:35:27 PM 42.6650 -91.1358 253° West 374 430 40,000  Level Chicago Center
Sat 04:36:29 PM 42.6322 -91.2686 251° West 373 429 40,000  Level Chicago Center
Sat 04:37:30 PM 42.5981 -91.4028 251° West 377 434 40,000  Level Chicago Center
Sat 04:38:32 PM 42.5667 -91.5419 253° West 381 438 40,000  Level Chicago Center
Sat 04:39:34 PM 42.5336 -91.6781 252° West 381 438 40,000  Level Chicago Center
Sat 04:40:36 PM 42.5014 -91.8136 252° West 380 437 40,000  Level Chicago Center
Sat 04:41:37 PM 42.4631 -91.9733 252° West 374 430 40,000  Level Chicago Center
Sat 04:42:39 PM 42.4294 -92.1072 251° West 375 432 40,000  Level Chicago Center
Sat 04:43:41 PM 42.3972 -92.2386 252° West 373 429 40,000  Level Chicago Center
Sat 04:44:42 PM 42.3644 -92.3714 252° West 373 429 40,000  Level Chicago Center
Sat 04:45:28 PM 42.3383 -92.4786 252° West 374 430 40,000  Level Minneapolis Center
Sat 04:46:30 PM 42.3053 -92.6103 251° West 374 430 40,000  Level Minneapolis Center
Sat 04:47:32 PM 42.2717 -92.7436 251° West 374 430 40,000  Level Minneapolis Center
Sat 04:48:34 PM 42.2383 -92.8767 251° West 375 432 40,000  Level Minneapolis Center
Sat 04:49:36 PM 42.1961 -93.0364 250° West 376 433 40,000  Level Minneapolis Center
Sat 04:50:38 PM 42.1628 -93.1692 251° West 379 436 40,000  Level Minneapolis Center
Sat 04:51:40 PM 42.1281 -93.3031 251° West 378 435 40,000  Level Minneapolis Center
Sat 04:52:41 PM 42.0939 -93.4372 251° West 380 437 40,000  Level Minneapolis Center
Sat 04:53:43 PM 42.0567 -93.5725 250° West 384 442 40,000  Level Minneapolis Center
Sat 04:54:45 PM 42.0147 -93.7342 251° West 384 442 40,000  Level Minneapolis Center
Sat 04:55:47 PM 41.9783 -93.8711 250° West 384 442 40,000  Level Minneapolis Center
Sat 04:56:49 PM 41.9433 -94.0044 251° West 384 442 40,000  Level Minneapolis Center
Sat 04:57:51 PM 41.9072 -94.1403 250° West 384 442 40,000  Level Minneapolis Center
Sat 04:58:52 PM 41.8708 -94.2747 250° West 385 443 40,000  Level Minneapolis Center
Sat 04:59:54 PM 41.8342 -94.4086 250° West 385 443 40,000  Level Minneapolis Center
Sat 05:00:56 PM 41.7975 -94.5431 250° West 384 442 40,000  Level Minneapolis Center
Sat 05:01:58 PM 41.7617 -94.6761 250° West 384 442 40,000  Level Minneapolis Center
Sat 05:03:00 PM 41.7161 -94.8358 249° West 384 442 40,000  Level Minneapolis Center
Sat 05:04:01 PM 41.6811 -94.9678 250° West 382 440 40,000  Level Minneapolis Center
Sat 05:05:03 PM 41.6433 -95.1022 249° West 382 440 40,000  Level Minneapolis Center
Sat 05:06:05 PM 41.6058 -95.2344 249° West 382 440 40,000  Level Minneapolis Center
Sat 05:07:07 PM 41.5683 -95.3683 250° West 382 440 40,000  Level Minneapolis Center
Sat 05:08:09 PM 41.5311 -95.4983 249° West 380 437 40,000  Level Minneapolis Center
Sat 05:09:11 PM 41.4894 -95.6444 249° West 380 437 40,000  Level Minneapolis Center
Sat 05:10:13 PM 41.4519 -95.7764 249° West 381 438 40,000  Level Minneapolis Center
Sat 05:11:14 PM 41.4142 -95.9081 249° West 381 438 40,000  Level Minneapolis Center
Sat 05:12:16 PM 41.3689 -96.0647 249° West 379 436 40,000  Level Minneapolis Center
Sat 05:13:18 PM 41.3308 -96.1967 249° West 380 437 40,000  Level Minneapolis Center
Sat 05:14:20 PM 41.2925 -96.3283 249° West 380 437 40,000  Level Minneapolis Center
Sat 05:15:22 PM 41.2533 -96.4614 249° West 383 441 40,000  Level Minneapolis Center
Sat 05:16:23 PM 41.2147 -96.5917 249° West 383 441 40,000  Level Minneapolis Center
Sat 05:17:25 PM 41.1756 -96.7208 248° West 382 440 40,000  Level Minneapolis Center
Sat 05:18:27 PM 41.1378 -96.8511 249° West 382 440 40,000  Level Minneapolis Center
Sat 05:19:29 PM 41.0978 -96.9833 248° West 382 440 40,000  Level Minneapolis Center
Sat 05:20:30 PM 41.0497 -97.1403 248° West 382 440 40,000  Level Minneapolis Center
Sat 05:21:32 PM 41.0094 -97.2700 248° West 382 440 40,000  Level Minneapolis Center
Sat 05:22:34 PM 40.9697 -97.4028 248° West 382 440 40,000  Level Minneapolis Center
Sat 05:23:36 PM 40.9289 -97.5339 248° West 382 440 40,000  Level Minneapolis Center
Sat 05:24:37 PM 40.8883 -97.6647 248° West 383 441 40,000  Level Minneapolis Center
Sat 05:25:39 PM 40.8489 -97.7969 249° West 383 441 40,000  Level Minneapolis Center
Sat 05:26:41 PM 40.8083 -97.9286 248° West 383 441 40,000  Level Minneapolis Center
Sat 05:27:43 PM 40.7667 -98.0600 247° West 384 442 40,000  Level Minneapolis Center
Sat 05:28:44 PM 40.7172 -98.2183 248° West 385 443 40,000  Level Minneapolis Center
Sat 05:29:46 PM 40.6750 -98.3506 247° West 385 443 40,000  Level Minneapolis Center
Sat 05:30:48 PM 40.6333 -98.4822 247° West 386 444 40,000  Level Minneapolis Center
Sat 05:31:49 PM 40.5917 -98.6150 248° West 387 445 40,000  Level Minneapolis Center
Sat 05:32:51 PM 40.5494 -98.7475 247° West 387 445 40,000  Level Minneapolis Center
Sat 05:33:53 PM 40.5061 -98.8800 247° West 387 445 40,000  Level Minneapolis Center
Sat 05:34:54 PM 40.4647 -99.0125 248° West 389 448 40,000  Level Minneapolis Center
Sat 05:35:58 PM 40.4217 -99.1436 247° West 392 451 40,000  Level Denver Center
Sat 05:37:00 PM 40.3694 -99.3036 247° West 393 452 40,000  Level Denver Center
Sat 05:38:02 PM 40.3261 -99.4344 247° West 393 452 40,000  Level Denver Center
Sat 05:39:04 PM 40.2819 -99.5669 246° West 393 452 40,000  Level Denver Center
Sat 05:40:03 PM 40.2389 -99.7008 247° West 393 452 40,000  Level Minneapolis Center
Sat 05:41:07 PM 40.1944 -99.8319 246° West 395 455 40,000  Level Denver Center
Sat 05:42:09 PM 40.1486 -99.9697 247° West 396 456 40,000  Level Denver Center
Sat 05:43:11 PM 40.0833 -100.1044 238° Southwest 399 459 40,000  Level Denver Center
Sat 05:45:11 PM 39.9497 -100.3067 229° Southwest 396 456 40,000  Level Minneapolis Center
Sat 05:46:16 PM 39.8653 -100.4386 230° Southwest 397 457 40,000  Level Denver Center
Sat 05:47:18 PM 39.7981 -100.5450 231° Southwest 397 457 40,000  Level Denver Center
Sat 05:48:20 PM 39.7208 -100.6714 232° Southwest 397 457 40,000  Level Denver Center
Sat 05:49:22 PM 39.6539 -100.7797 231° Southwest 398 458 40,000  Level Denver Center
Sat 05:50:24 PM 39.5764 -100.9058 231° Southwest 399 459 40,000  Level Denver Center
Sat 05:51:25 PM 39.5117 -101.0158 233° Southwest 399 459 40,000  Level Denver Center
Sat 05:52:27 PM 39.4472 -101.1233 232° Southwest 398 458 40,000  Level Denver Center
Sat 05:53:29 PM 39.3725 -101.2531 233° Southwest 399 459 40,000  Level Denver Center
Sat 05:54:31 PM 39.3075 -101.3647 233° Southwest 405 466 40,000  Level Denver Center
Sat 05:55:33 PM 39.2308 -101.4950 233° Southwest 404 465 40,000  Level Denver Center
Sat 05:56:34 PM 39.1631 -101.6044 231° Southwest 406 467 40,000  Level Denver Center
Sat 05:57:36 PM 39.0856 -101.7258 231° Southwest 407 468 40,000  Level Denver Center
Sat 05:58:38 PM 39.0161 -101.8331 230° Southwest 408 470 40,000  Level Denver Center
Sat 05:59:40 PM 38.9350 -101.9589 230° Southwest 408 470 40,000  Level Denver Center
Sat 06:00:43 PM 38.8647 -102.0667 230° Southwest 409 471 40,000  Level Denver Center
Sat 06:01:45 PM 38.7825 -102.1917 230° Southwest 409 471 40,000  Level Denver Center
Sat 06:02:47 PM 38.7136 -102.3008 231° Southwest 410 472 40,000  Level Denver Center
Sat 06:03:49 PM 38.6317 -102.4267 230° Southwest 410 472 40,000  Level Denver Center
Sat 06:04:50 PM 38.5650 -102.5342 232° Southwest 408 470 40,000  Level Denver Center
Sat 06:05:52 PM 38.4833 -102.6608 231° Southwest 409 471 40,000  Level Denver Center
Sat 06:06:54 PM 38.4131 -102.7708 231° Southwest 413 475 40,000  Level Denver Center
Sat 06:07:56 PM 38.3311 -102.8983 231° Southwest 418 481 40,000  Level Denver Center
Sat 06:08:57 PM 38.2600 -103.0086 231° Southwest 419 482 40,000  Level Denver Center
Sat 06:09:59 PM 38.1797 -103.1367 231° Southwest 419 482 40,000  Level Denver Center
Sat 06:11:01 PM 38.1061 -103.2519 231° Southwest 419 482 40,000  Level Denver Center
Sat 06:12:02 PM 38.0336 -103.3681 232° Southwest 421 484 40,000  Level Denver Center
Sat 06:13:04 PM 37.9594 -103.4850 231° Southwest 422 486 40,000  Level Denver Center
Sat 06:14:06 PM 37.8819 -103.6078 231° Southwest 426 490 40,000  Level Denver Center
Sat 06:15:07 PM 37.8172 -103.7258 235° Southwest 427 491 40,000  Level Denver Center
Sat 06:16:09 PM 37.7517 -103.8519 237° Southwest 429 494 40,000  Level Denver Center
Sat 06:17:11 PM 37.6772 -104.0044 238° Southwest 430 495 40,000  Level Denver Center
Sat 06:18:13 PM 37.6183 -104.1364 241° Southwest 443 510 40,000  Level Denver Center
Sat 06:19:15 PM 37.5744 -104.2742 248° West 437 503 40,000  Level Denver Center
Sat 06:20:17 PM 37.5247 -104.4311 248° West 434 499 40,000  Level Denver Center
Sat 06:21:18 PM 37.4747 -104.5822 247° West 435 501 40,000  Level Denver Center
Sat 06:22:20 PM 37.4286 -104.7242 248° West 436 502 40,000  Level Denver Center
Sat 06:23:22 PM 37.3853 -104.8589 248° West 440 506 40,000  Level Denver Center
Sat 06:24:23 PM 37.3319 -105.0050 245° Southwest 439 505 40,000  Level Denver Center
Sat 06:25:25 PM 37.2397 -105.1136 223° Southwest 453 521 40,000  Level Denver Center
Sat 06:26:27 PM 37.1681 -105.2422 235° Southwest 453 521 40,000  Level Denver Center
Sat 06:27:29 PM 37.0944 -105.4078 241° Southwest 453 521 40,000  Level Denver Center
Sat 06:28:30 PM 37.0322 -105.5411 240° Southwest 450 518 40,000  Level Denver Center
Sat 06:29:32 PM 36.9703 -105.6744 240° Southwest 449 517 40,000  Level Denver Center
Sat 06:30:34 PM 36.9067 -105.8064 239° Southwest 445 512 40,000  Level Denver Center
Sat 06:31:35 PM 36.8408 -105.9372 238° Southwest 446 513 40,000  Level Denver Center
Sat 06:32:37 PM 36.7892 -106.0981 248° West 445 512 40,000 97 Level Denver Center
Sat 06:33:39 PM 36.7467 -106.2300 248° West 445 512 40,200 634 Climbing Denver Center
Sat 06:34:40 PM 36.7006 -106.3706 248° West 444 511 41,300 1,073 Climbing Denver Center
Sat 06:35:42 PM 36.6506 -106.5233 248° West 429 494 42,400 823 Climbing Denver Center
Sat 06:36:44 PM 36.6081 -106.6522 248° West 425 489 43,000 293 Climbing Denver Center
Sat 06:37:45 PM 36.5508 -106.8000 244° Southwest 424 488 43,000  Level Denver Center
Sat 06:38:47 PM 36.4917 -106.9247 239° Southwest 432 497 43,000  Level Denver Center
Sat 06:39:49 PM 36.4225 -107.0711 240° Southwest 438 504 43,000  Level Denver Center
Sat 06:40:50 PM 36.3636 -107.1956 240° Southwest 438 504 43,000  Level Denver Center
Sat 06:41:52 PM 36.3047 -107.3219 240° Southwest 438 504 43,000  Level Denver Center
Sat 06:42:54 PM 36.2403 -107.4708 242° Southwest 438 504 43,000  Level Denver Center
Sat 06:43:55 PM 36.1872 -107.6008 243° Southwest 439 505 43,000  Level Denver Center
Sat 06:44:57 PM 36.1228 -107.7519 242° Southwest 439 505 43,000  Level Denver Center
Sat 06:45:59 PM 36.0664 -107.8797 241° Southwest 440 506 43,000  Level Denver Center
Sat 06:47:00 PM 36.0078 -108.0075 240° Southwest 441 507 43,000  Level Denver Center
Sat 06:48:02 PM 35.9397 -108.1575 241° Southwest 443 510 43,000  Level Denver Center
Sat 06:49:03 PM 35.8817 -108.2850 241° Southwest 443 510 43,000  Level Denver Center
Sat 06:50:05 PM 35.8131 -108.4336 240° Southwest 444 511 43,000  Level Denver Center
Sat 06:51:07 PM 35.7547 -108.5619 241° Southwest 444 511 43,000  Level Denver Center
Sat 06:52:08 PM 35.6928 -108.6889 239° Southwest 445 512 43,000  Level Denver Center
Sat 06:53:10 PM 35.6219 -108.8358 239° Southwest 445 512 43,000  Level Denver Center
Sat 06:54:11 PM 35.5619 -108.9594 239° Southwest 443 510 43,000  Level Denver Center
Sat 06:55:13 PM 35.4908 -109.1036 239° Southwest 442 509 43,000  Level Denver Center
Sat 06:56:14 PM 35.4314 -109.2281 240° Southwest 442 509 43,000  Level Denver Center
Sat 06:57:16 PM 35.3708 -109.3519 239° Southwest 442 509 43,000  Level Denver Center
Sat 06:58:35 PM 35.2811 -109.5344 239° Southwest 439 505 43,000  Level Albuquerque Center
Sat 06:59:37 PM 35.2239 -109.6603 241° Southwest 439 505 43,000  Level Albuquerque Center
Sat 07:00:38 PM 35.1808 -109.7967 249° West 445 512 43,000  Level Albuquerque Center
Sat 07:01:39 PM 35.1311 -109.9536 249° West 446 513 43,000  Level Albuquerque Center
Sat 07:02:41 PM 35.1006 -110.0903 255° West 436 502 43,000  Level Albuquerque Center
Sat 07:03:42 PM 35.0675 -110.2558 256° West 442 509 43,000  Level Albuquerque Center
Sat 07:04:43 PM 35.0400 -110.3947 256° West 441 507 43,000  Level Albuquerque Center
Sat 07:05:45 PM 35.0117 -110.5353 256° West 442 509 43,000  Level Albuquerque Center
Sat 07:06:46 PM 34.9769 -110.6994 256° West 444 511 43,000  Level Albuquerque Center
Sat 07:07:47 PM 34.9492 -110.8314 256° West 444 511 43,000  Level Albuquerque Center
Sat 07:08:48 PM 34.9206 -110.9789 257° West 445 512 43,000  Level Albuquerque Center
Sat 07:09:50 PM 34.8917 -111.1281 257° West 455 524 43,000  Level Albuquerque Center
Sat 07:10:51 PM 34.8608 -111.2753 256° West 455 524 43,000  Level Albuquerque Center
Sat 07:11:52 PM 34.8253 -111.4500 256° West 451 519 43,000  Level Albuquerque Center
Sat 07:12:53 PM 34.7939 -111.5956 255° West 450 518 43,000  Level Albuquerque Center
Sat 07:13:55 PM 34.7633 -111.7425 256° West 450 518 43,000  Level Albuquerque Center
Sat 07:14:56 PM 34.7317 -111.8894 255° West 450 518 43,000  Level Albuquerque Center
Sat 07:15:57 PM 34.7008 -112.0342 256° West 450 518 43,000  Level Albuquerque Center
Sat 07:16:58 PM 34.6706 -112.1781 256° West 449 517 43,000  Level Albuquerque Center
Sat 07:18:00 PM 34.6389 -112.3206 255° West 446 513 43,000  Level Albuquerque Center
Sat 07:19:01 PM 34.6083 -112.4647 256° West 445 512 43,000  Level Albuquerque Center
Sat 07:20:02 PM 34.5697 -112.6400 255° West 445 512 43,000  Level Albuquerque Center
Sat 07:21:04 PM 34.5381 -112.7847 255° West 445 512 43,000  Level Albuquerque Center
Sat 07:22:05 PM 34.5056 -112.9314 255° West 446 513 43,000  Level Albuquerque Center
Sat 07:23:06 PM 34.4722 -113.0783 255° West 447 514 43,000  Level Albuquerque Center
Sat 07:24:08 PM 34.4397 -113.2250 255° West 448 516 43,000 -98 Level Albuquerque Center
Sat 07:25:09 PM 34.4081 -113.3644 255° West 448 516 42,800 -1,230 Descending Albuquerque Center
Sat 07:26:10 PM 34.3753 -113.5106 255° West 448 516 40,500 -2,244 Descending Albuquerque Center
Sat 07:27:12 PM 34.3411 -113.6569 254° West 450 518 38,200 -2,488 Descending Albuquerque Center
Sat 07:28:13 PM 34.3025 -113.8272 255° West 445 512 35,400 -2,066 Descending Albuquerque Center
Sat 07:29:14 PM 34.2536 -113.9658 247° West 457 526 34,000 -683 Descending Albuquerque Center
Sat 07:30:16 PM 34.1969 -114.1044 244° Southwest 463 533 34,000  Level Albuquerque Center
Sat 07:30:47 PM 34.1681 -114.1725 243° Southwest 459 528 34,000  Level Los Angeles Center
Sat 07:31:49 PM 34.1122 -114.3094 244° Southwest 459 528 34,000  Level Los Angeles Center
Sat 07:32:51 PM 34.0567 -114.4439 244° Southwest 452 520 34,000  Level Los Angeles Center
Sat 07:33:53 PM 34.0011 -114.5808 244° Southwest 453 521 34,000  Level Los Angeles Center
Sat 07:34:54 PM 33.9442 -114.7172 243° Southwest 455 524 34,000  Level Los Angeles Center
Sat 07:35:56 PM 33.8750 -114.8803 243° Southwest 457 526 34,000  Level Los Angeles Center
Sat 07:36:58 PM 33.8197 -115.0172 244° Southwest 457 526 34,000  Level Los Angeles Center
Sat 07:38:00 PM 33.7619 -115.1547 243° Southwest 458 527 34,000 -339 Level Los Angeles Center
Sat 07:39:02 PM 33.7022 -115.2900 242° Southwest 458 527 33,300 -1,024 Descending Los Angeles Center
Sat 07:40:03 PM 33.6444 -115.4253 243° Southwest 458 527 31,900 -1,512 Descending Los Angeles Center
Sat 07:41:05 PM 33.5869 -115.5622 243° Southwest 458 527 30,200 -1,790 Descending Los Angeles Center
Sat 07:42:07 PM 33.5172 -115.7242 243° Southwest 458 527 28,200 -1,790 Descending Los Angeles Center
Sat 07:43:09 PM 33.4594 -115.8575 243° Southwest 456 525 26,500 -1,984 Descending Los Angeles Center
Sat 07:44:11 PM 33.4017 -115.9861 242° Southwest 445 512 24,100 -2,390 Descending Los Angeles Center
Sat 07:45:12 PM 33.3442 -116.1108 241° Southwest 436 502 21,600 -2,439 Descending Los Angeles Center
Sat 07:46:14 PM 33.2833 -116.2283 238° Southwest 420 483 19,100 -2,371 Descending Los Angeles Center
Sat 07:47:16 PM 33.2000 -116.3197 223° Southwest 414 476 16,700 -2,613 Descending Los Angeles Center
Sat 07:48:18 PM 33.1056 -116.4200 222° Southwest 390 449 13,700 -2,323 Descending Los Angeles Center
Sat 07:49:20 PM 33.0336 -116.4822 216° Southwest 358 412 11,900 -1,790 Descending Los Angeles Center
Sat 07:50:22 PM 32.9608 -116.5419 215° Southwest 308 354 10,000 -1,403 Descending Los Angeles Center
Sat 07:51:24 PM 32.9058 -116.6064 225° Southwest 287 330 9,000 -829 Descending Los Angeles Center
Sat 07:52:25 PM 32.8511 -116.6669 223° Southwest 273 314 8,300 -1,220 Descending Los Angeles Center
Sat 07:53:27 PM 32.7811 -116.7456 223° Southwest 286 329 6,500 -1,597 Descending Los Angeles Center
Sat 07:54:29 PM 32.7300 -116.8033 224° Southwest 265 305 5,000 -774 Descending Los Angeles Center
Sat 07:55:31 PM 32.7150 -116.8733 256° West 264 304 4,900 -484 Descending Los Angeles Center
Sat 07:56:33 PM 32.6678 -116.9050 209° Southwest 218 251 4,000 -968 Descending Los Angeles Center
Sat 07:57:35 PM 32.6267 -116.9217 199° South 185 213 2,900 -1,190 Descending Los Angeles Center
Sat 07:58:39 PM 32.5833 -116.9333 193° South 142 163 1,500 -1,016 Descending Southern California TRACON
Sat 07:59:39 PM 32.5667 -116.9500 220° Southwest 109 125 800 -700 Descending Southern California TRACON

Login

Don't have an account? Register now (free) for customized features, flight alerts, and more!